sensor_id;sensor_type;location;lat;lon;timestamp;temperature;humidity
16136;DHT22;8173;48.354;9.248;2023-01-01T00:01:10;7.20;99.90
16136;DHT22;8173;48.354;9.248;2023-01-01T00:03:39;7.30;99.90
16136;DHT22;8173;48.354;9.248;2023-01-01T00:06:06;7.30;99.90
16136;DHT22;8173;48.354;9.248;2023-01-01T00:08:33;7.30;99.90
16136;DHT22;8173;48.354;9.248;2023-01-01T00:11:00;7.20;99.90
16136;DHT22;8173;48.354;9.248;2023-01-01T00:13:27;7.20;99.90
16136;DHT22;8173;48.354;9.248;2023-01-01T00:15:54;7.20;99.90
16136;DHT22;8173;48.354;9.248;2023-01-01T00:18:21;7.10;99.90
16136;DHT22;8173;48.354;9.248;2023-01-01T00:20:49;7.10;99.90
16136;DHT22;8173;48.354;9.248;2023-01-01T00:23:16;7.10;99.90
16136;DHT22;8173;48.354;9.248;2023-01-01T00:25:42;7.20;99.90
16136;DHT22;8173;48.354;9.248;2023-01-01T00:28:09;7.30;99.90
16136;DHT22;8173;48.354;9.248;2023-01-01T00:30:38;7.30;99.90
16136;DHT22;8173;48.354;9.248;2023-01-01T00:33:06;7.30;99.90
16136;DHT22;8173;48.354;9.248;2023-01-01T00:35:32;7.20;99.90
16136;DHT22;8173;48.354;9.248;2023-01-01T00:38:00;7.10;99.90
16136;DHT22;8173;48.354;9.248;2023-01-01T00:40:27;7.20;99.90
16136;DHT22;8173;48.354;9.248;2023-01-01T00:42:54;7.10;99.90
16136;DHT22;8173;48.354;9.248;2023-01-01T00:45:21;7.00;99.90
16136;DHT22;8173;48.354;9.248;2023-01-01T00:47:47;6.90;99.90
16136;DHT22;8173;48.354;9.248;2023-01-01T00:50:14;6.90;99.90
16136;DHT22;8173;48.354;9.248;2023-01-01T00:52:41;7.00;99.90
16136;DHT22;8173;48.354;9.248;2023-01-01T00:55:10;7.10;99.90
16136;DHT22;8173;48.354;9.248;2023-01-01T00:57:37;7.20;99.90
16136;DHT22;8173;48.354;9.248;2023-01-01T01:00:05;7.10;99.90
16136;DHT22;8173;48.354;9.248;2023-01-01T01:02:31;7.00;99.90
16136;DHT22;8173;48.354;9.248;2023-01-01T01:04:58;7.00;99.90
16136;DHT22;8173;48.354;9.248;2023-01-01T01:07:25;6.90;99.90
16136;DHT22;8173;48.354;9.248;2023-01-01T01:09:52;6.80;99.90
16136;DHT22;8173;48.354;9.248;2023-01-01T01:12:20;6.80;99.90
16136;DHT22;8173;48.354;9.248;2023-01-01T01:14:47;6.80;99.90
16136;DHT22;8173;48.354;9.248;2023-01-01T01:17:13;6.80;99.90
16136;DHT22;8173;48.354;9.248;2023-01-01T01:19:40;6.80;99.90
16136;DHT22;8173;48.354;9.248;2023-01-01T01:22:07;6.80;99.90
16136;DHT22;8173;48.354;9.248;2023-01-01T01:24:34;6.70;99.90
16136;DHT22;8173;48.354;9.248;2023-01-01T01:27:00;6.60;99.90
16136;DHT22;8173;48.354;9.248;2023-01-01T01:29:28;6.60;99.90
16136;DHT22;8173;48.354;9.248;2023-01-01T01:31:55;6.50;99.90
16136;DHT22;8173;48.354;9.248;2023-01-01T01:34:22;6.40;99.90
16136;DHT22;8173;48.354;9.248;2023-01-01T01:36:49;6.40;99.90
16136;DHT22;8173;48.354;9.248;2023-01-01T01:39:17;6.40;99.90
16136;DHT22;8173;48.354;9.248;2023-01-01T01:41:44;6.50;99.90
16136;DHT22;8173;48.354;9.248;2023-01-01T01:47:14;6.50;99.90
16136;DHT22;8173;48.354;9.248;2023-01-01T01:49:43;6.60;99.90
16136;DHT22;8173;48.354;9.248;2023-01-01T01:52:11;6.70;99.90
16136;DHT22;8173;48.354;9.248;2023-01-01T01:54:38;6.60;99.90
16136;DHT22;8173;48.354;9.248;2023-01-01T01:57:08;6.50;99.90
16136;DHT22;8173;48.354;9.248;2023-01-01T01:59:40;6.50;99.90
16136;DHT22;8173;48.354;9.248;2023-01-01T02:02:13;6.70;99.90
16136;DHT22;8173;48.354;9.248;2023-01-01T02:04:41;6.80;99.90
16136;DHT22;8173;48.354;9.248;2023-01-01T02:07:09;6.90;99.90
16136;DHT22;8173;48.354;9.248;2023-01-01T02:09:36;6.80;99.90
16136;DHT22;8173;48.354;9.248;2023-01-01T02:12:03;6.60;99.90
16136;DHT22;8173;48.354;9.248;2023-01-01T02:14:30;6.40;99.90
16136;DHT22;8173;48.354;9.248;2023-01-01T02:17:04;6.20;99.90
16136;DHT22;8173;48.354;9.248;2023-01-01T02:19:43;6.20;99.90
16136;DHT22;8173;48.354;9.248;2023-01-01T02:22:23;6.20;99.90
16136;DHT22;8173;48.354;9.248;2023-01-01T02:25:04;6.30;99.90
16136;DHT22;8173;48.354;9.248;2023-01-01T02:27:44;6.40;99.90
16136;DHT22;8173;48.354;9.248;2023-01-01T02:30:23;6.30;99.90
16136;DHT22;8173;48.354;9.248;2023-01-01T02:32:53;6.30;99.90
16136;DHT22;8173;48.354;9.248;2023-01-01T02:35:23;6.10;99.90
16136;DHT22;8173;48.354;9.248;2023-01-01T02:38:07;6.10;99.90
16136;DHT22;8173;48.354;9.248;2023-01-01T02:40:39;6.10;99.90
16136;DHT22;8173;48.354;9.248;2023-01-01T02:43:06;6.20;99.90
16136;DHT22;8173;48.354;9.248;2023-01-01T02:45:36;6.20;99.90
16136;DHT22;8173;48.354;9.248;2023-01-01T02:48:04;6.20;99.90
16136;DHT22;8173;48.354;9.248;2023-01-01T02:50:31;6.10;99.90
16136;DHT22;8173;48.354;9.248;2023-01-01T02:53:16;6.00;99.90
16136;DHT22;8173;48.354;9.248;2023-01-01T02:55:53;6.00;99.90
16136;DHT22;8173;48.354;9.248;2023-01-01T02:58:26;5.80;99.90
16136;DHT22;8173;48.354;9.248;2023-01-01T03:01:20;5.50;99.90
16136;DHT22;8173;48.354;9.248;2023-01-01T03:03:58;5.40;99.90
16136;DHT22;8173;48.354;9.248;2023-01-01T03:06:31;5.50;99.90
16136;DHT22;8173;48.354;9.248;2023-01-01T03:09:10;5.70;99.90
16136;DHT22;8173;48.354;9.248;2023-01-01T03:11:45;5.70;99.90
16136;DHT22;8173;48.354;9.248;2023-01-01T03:14:20;5.50;99.90
16136;DHT22;8173;48.354;9.248;2023-01-01T03:16:58;5.40;99.90
16136;DHT22;8173;48.354;9.248;2023-01-01T03:19:27;5.50;99.90
16136;DHT22;8173;48.354;9.248;2023-01-01T03:21:57;5.40;99.90
16136;DHT22;8173;48.354;9.248;2023-01-01T03:24:30;5.50;99.90
16136;DHT22;8173;48.354;9.248;2023-01-01T03:27:01;5.50;99.90
16136;DHT22;8173;48.354;9.248;2023-01-01T03:29:32;5.60;99.90
16136;DHT22;8173;48.354;9.248;2023-01-01T03:32:03;5.80;99.90
16136;DHT22;8173;48.354;9.248;2023-01-01T03:34:33;5.90;99.90
16136;DHT22;8173;48.354;9.248;2023-01-01T03:37:04;5.90;99.90
16136;DHT22;8173;48.354;9.248;2023-01-01T03:39:35;5.90;99.90
16136;DHT22;8173;48.354;9.248;2023-01-01T03:42:11;5.90;99.90
16136;DHT22;8173;48.354;9.248;2023-01-01T03:44:44;5.70;99.90
16136;DHT22;8173;48.354;9.248;2023-01-01T03:47:13;5.80;99.90
16136;DHT22;8173;48.354;9.248;2023-01-01T03:49:41;5.70;99.90
16136;DHT22;8173;48.354;9.248;2023-01-01T03:52:22;5.70;99.90
16136;DHT22;8173;48.354;9.248;2023-01-01T03:54:54;5.90;99.90
16136;DHT22;8173;48.354;9.248;2023-01-01T03:57:27;5.90;99.90
16136;DHT22;8173;48.354;9.248;2023-01-01T04:00:03;5.80;99.90
16136;DHT22;8173;48.354;9.248;2023-01-01T04:02:37;5.80;99.90
16136;DHT22;8173;48.354;9.248;2023-01-01T04:05:06;5.70;99.90
16136;DHT22;8173;48.354;9.248;2023-01-01T04:07:35;5.80;99.90
16136;DHT22;8173;48.354;9.248;2023-01-01T04:10:04;5.90;99.90
16136;DHT22;8173;48.354;9.248;2023-01-01T04:12:46;5.80;99.90
16136;DHT22;8173;48.354;9.248;2023-01-01T04:15:13;5.70;99.90
16136;DHT22;8173;48.354;9.248;2023-01-01T04:17:41;5.80;99.90
16136;DHT22;8173;48.354;9.248;2023-01-01T04:20:09;5.90;99.90
16136;DHT22;8173;48.354;9.248;2023-01-01T04:22:36;5.90;99.90
16136;DHT22;8173;48.354;9.248;2023-01-01T04:25:03;5.90;99.90
16136;DHT22;8173;48.354;9.248;2023-01-01T04:27:30;5.70;99.90
16136;DHT22;8173;48.354;9.248;2023-01-01T04:29:57;5.60;99.90
16136;DHT22;8173;48.354;9.248;2023-01-01T04:32:24;5.50;99.90
16136;DHT22;8173;48.354;9.248;2023-01-01T04:34:52;5.50;99.90
16136;DHT22;8173;48.354;9.248;2023-01-01T04:37:19;5.60;99.90
16136;DHT22;8173;48.354;9.248;2023-01-01T04:39:45;5.50;99.90
16136;DHT22;8173;48.354;9.248;2023-01-01T04:42:12;5.50;99.90
16136;DHT22;8173;48.354;9.248;2023-01-01T04:44:39;5.60;99.90
16136;DHT22;8173;48.354;9.248;2023-01-01T04:47:05;5.60;99.90
16136;DHT22;8173;48.354;9.248;2023-01-01T04:49:32;5.60;99.90
16136;DHT22;8173;48.354;9.248;2023-01-01T04:52:00;5.60;99.90
16136;DHT22;8173;48.354;9.248;2023-01-01T04:54:27;5.70;99.90
16136;DHT22;8173;48.354;9.248;2023-01-01T04:56:54;5.60;99.90
16136;DHT22;8173;48.354;9.248;2023-01-01T04:59:21;5.60;99.90
16136;DHT22;8173;48.354;9.248;2023-01-01T05:01:47;5.60;99.90
16136;DHT22;8173;48.354;9.248;2023-01-01T05:04:15;5.60;99.90
16136;DHT22;8173;48.354;9.248;2023-01-01T05:06:43;5.70;99.90
16136;DHT22;8173;48.354;9.248;2023-01-01T05:09:11;5.80;99.90
16136;DHT22;8173;48.354;9.248;2023-01-01T05:11:38;5.80;99.90
16136;DHT22;8173;48.354;9.248;2023-01-01T05:14:06;5.90;99.90
16136;DHT22;8173;48.354;9.248;2023-01-01T05:16:35;5.80;99.90
16136;DHT22;8173;48.354;9.248;2023-01-01T05:19:03;5.80;99.90
16136;DHT22;8173;48.354;9.248;2023-01-01T05:21:32;5.80;99.90
16136;DHT22;8173;48.354;9.248;2023-01-01T05:24:01;5.90;99.90
16136;DHT22;8173;48.354;9.248;2023-01-01T05:26:30;6.00;99.90
16136;DHT22;8173;48.354;9.248;2023-01-01T05:28:58;6.00;99.90
16136;DHT22;8173;48.354;9.248;2023-01-01T05:31:27;5.90;99.90
16136;DHT22;8173;48.354;9.248;2023-01-01T05:33:54;5.80;99.90
16136;DHT22;8173;48.354;9.248;2023-01-01T05:36:23;5.90;99.90
16136;DHT22;8173;48.354;9.248;2023-01-01T05:38:51;5.90;99.90
16136;DHT22;8173;48.354;9.248;2023-01-01T05:41:19;5.90;99.90
16136;DHT22;8173;48.354;9.248;2023-01-01T05:43:48;5.80;99.90
16136;DHT22;8173;48.354;9.248;2023-01-01T05:46:17;5.80;99.90
16136;DHT22;8173;48.354;9.248;2023-01-01T05:48:44;5.70;99.90
16136;DHT22;8173;48.354;9.248;2023-01-01T05:51:13;5.60;99.90
16136;DHT22;8173;48.354;9.248;2023-01-01T05:53:40;5.50;99.90
16136;DHT22;8173;48.354;9.248;2023-01-01T05:56:09;5.50;99.90
16136;DHT22;8173;48.354;9.248;2023-01-01T05:58:36;5.60;99.90
16136;DHT22;8173;48.354;9.248;2023-01-01T06:01:09;5.50;99.90
16136;DHT22;8173;48.354;9.248;2023-01-01T06:03:37;5.50;99.90
16136;DHT22;8173;48.354;9.248;2023-01-01T06:06:05;5.60;99.90
16136;DHT22;8173;48.354;9.248;2023-01-01T06:08:31;5.70;99.90
16136;DHT22;8173;48.354;9.248;2023-01-01T06:10:59;5.80;99.90
16136;DHT22;8173;48.354;9.248;2023-01-01T06:13:26;5.90;99.90
16136;DHT22;8173;48.354;9.248;2023-01-01T06:15:54;5.90;99.90
16136;DHT22;8173;48.354;9.248;2023-01-01T06:18:23;5.90;99.90
16136;DHT22;8173;48.354;9.248;2023-01-01T06:20:50;5.90;99.90
16136;DHT22;8173;48.354;9.248;2023-01-01T06:23:17;5.90;99.90
16136;DHT22;8173;48.354;9.248;2023-01-01T06:25:44;6.00;99.90
16136;DHT22;8173;48.354;9.248;2023-01-01T06:28:10;6.00;99.90
16136;DHT22;8173;48.354;9.248;2023-01-01T06:30:37;6.00;99.90
16136;DHT22;8173;48.354;9.248;2023-01-01T06:33:04;5.90;99.90
16136;DHT22;8173;48.354;9.248;2023-01-01T06:35:32;5.90;99.90
16136;DHT22;8173;48.354;9.248;2023-01-01T06:37:59;5.70;99.90
16136;DHT22;8173;48.354;9.248;2023-01-01T06:40:26;5.50;99.90
16136;DHT22;8173;48.354;9.248;2023-01-01T06:42:52;5.50;99.90
16136;DHT22;8173;48.354;9.248;2023-01-01T06:45:19;5.50;99.90
16136;DHT22;8173;48.354;9.248;2023-01-01T06:47:46;5.50;99.90
16136;DHT22;8173;48.354;9.248;2023-01-01T06:50:12;5.60;99.90
16136;DHT22;8173;48.354;9.248;2023-01-01T06:52:40;5.60;99.90
16136;DHT22;8173;48.354;9.248;2023-01-01T06:55:08;5.70;99.90
16136;DHT22;8173;48.354;9.248;2023-01-01T06:57:34;5.70;99.90
16136;DHT22;8173;48.354;9.248;2023-01-01T07:00:01;5.80;99.90
16136;DHT22;8173;48.354;9.248;2023-01-01T07:02:28;5.80;99.90
16136;DHT22;8173;48.354;9.248;2023-01-01T07:04:55;5.80;99.90
16136;DHT22;8173;48.354;9.248;2023-01-01T07:07:22;5.80;99.90
16136;DHT22;8173;48.354;9.248;2023-01-01T07:09:50;5.80;99.90
16136;DHT22;8173;48.354;9.248;2023-01-01T07:12:17;5.70;99.90
16136;DHT22;8173;48.354;9.248;2023-01-01T07:14:43;5.80;99.90
16136;DHT22;8173;48.354;9.248;2023-01-01T07:17:10;5.80;99.90
16136;DHT22;8173;48.354;9.248;2023-01-01T07:19:37;6.60;99.90
16136;DHT22;8173;48.354;9.248;2023-01-01T07:22:03;5.80;99.90
16136;DHT22;8173;48.354;9.248;2023-01-01T07:24:30;5.90;99.90
16136;DHT22;8173;48.354;9.248;2023-01-01T07:26:58;5.80;99.90
16136;DHT22;8173;48.354;9.248;2023-01-01T07:29:25;5.90;99.90
16136;DHT22;8173;48.354;9.248;2023-01-01T07:31:51;6.00;99.90
16136;DHT22;8173;48.354;9.248;2023-01-01T07:34:18;6.00;99.90
16136;DHT22;8173;48.354;9.248;2023-01-01T07:36:47;6.10;99.90
16136;DHT22;8173;48.354;9.248;2023-01-01T07:39:13;6.20;99.90
16136;DHT22;8173;48.354;9.248;2023-01-01T07:41:40;6.30;99.90
16136;DHT22;8173;48.354;9.248;2023-01-01T07:44:08;6.30;99.90
16136;DHT22;8173;48.354;9.248;2023-01-01T07:46:35;6.40;99.90
16136;DHT22;8173;48.354;9.248;2023-01-01T07:49:02;6.50;99.90
16136;DHT22;8173;48.354;9.248;2023-01-01T07:51:29;6.60;99.90
16136;DHT22;8173;48.354;9.248;2023-01-01T07:53:56;6.60;99.90
16136;DHT22;8173;48.354;9.248;2023-01-01T07:56:22;6.70;99.90
16136;DHT22;8173;48.354;9.248;2023-01-01T07:58:49;6.60;99.90
16136;DHT22;8173;48.354;9.248;2023-01-01T08:01:17;6.70;99.90
16136;DHT22;8173;48.354;9.248;2023-01-01T08:03:44;6.70;99.90
16136;DHT22;8173;48.354;9.248;2023-01-01T08:06:15;6.60;99.90
16136;DHT22;8173;48.354;9.248;2023-01-01T08:08:42;6.70;99.90
16136;DHT22;8173;48.354;9.248;2023-01-01T08:11:08;6.80;99.90
16136;DHT22;8173;48.354;9.248;2023-01-01T08:13:35;7.00;99.90
16136;DHT22;8173;48.354;9.248;2023-01-01T08:16:02;7.10;99.90
16136;DHT22;8173;48.354;9.248;2023-01-01T08:18:30;7.30;99.90
16136;DHT22;8173;48.354;9.248;2023-01-01T08:20:57;7.60;99.90
16136;DHT22;8173;48.354;9.248;2023-01-01T08:23:24;7.60;99.90
16136;DHT22;8173;48.354;9.248;2023-01-01T08:25:51;7.80;99.90
16136;DHT22;8173;48.354;9.248;2023-01-01T08:28:17;7.80;99.90
16136;DHT22;8173;48.354;9.248;2023-01-01T08:30:44;7.90;99.90
16136;DHT22;8173;48.354;9.248;2023-01-01T08:33:11;8.10;99.90
16136;DHT22;8173;48.354;9.248;2023-01-01T08:35:41;8.30;99.90
16136;DHT22;8173;48.354;9.248;2023-01-01T08:38:10;8.50;99.90
16136;DHT22;8173;48.354;9.248;2023-01-01T08:40:37;8.60;99.90
16136;DHT22;8173;48.354;9.248;2023-01-01T08:43:04;8.80;99.90
16136;DHT22;8173;48.354;9.248;2023-01-01T08:45:31;8.80;99.90
16136;DHT22;8173;48.354;9.248;2023-01-01T08:47:58;9.00;99.90
16136;DHT22;8173;48.354;9.248;2023-01-01T08:50:25;9.00;99.90
16136;DHT22;8173;48.354;9.248;2023-01-01T08:52:53;8.90;99.90
16136;DHT22;8173;48.354;9.248;2023-01-01T08:55:20;8.70;99.90
16136;DHT22;8173;48.354;9.248;2023-01-01T08:57:47;8.50;99.90
16136;DHT22;8173;48.354;9.248;2023-01-01T09:00:14;8.40;99.90
16136;DHT22;8173;48.354;9.248;2023-01-01T09:02:41;8.30;99.90
16136;DHT22;8173;48.354;9.248;2023-01-01T09:05:08;8.40;99.90
16136;DHT22;8173;48.354;9.248;2023-01-01T09:07:35;8.90;99.90
16136;DHT22;8173;48.354;9.248;2023-01-01T09:10:04;9.50;99.90
16136;DHT22;8173;48.354;9.248;2023-01-01T09:12:31;10.00;99.90
16136;DHT22;8173;48.354;9.248;2023-01-01T09:14:57;10.40;99.90
16136;DHT22;8173;48.354;9.248;2023-01-01T09:17:24;10.80;99.90
16136;DHT22;8173;48.354;9.248;2023-01-01T09:19:51;11.00;99.90
16136;DHT22;8173;48.354;9.248;2023-01-01T09:22:17;11.40;99.90
16136;DHT22;8173;48.354;9.248;2023-01-01T09:24:44;11.60;99.90
16136;DHT22;8173;48.354;9.248;2023-01-01T09:27:12;11.60;99.90
16136;DHT22;8173;48.354;9.248;2023-01-01T09:29:39;11.70;99.90
16136;DHT22;8173;48.354;9.248;2023-01-01T09:32:05;11.80;99.90
16136;DHT22;8173;48.354;9.248;2023-01-01T09:34:32;12.00;99.90
16136;DHT22;8173;48.354;9.248;2023-01-01T09:36:59;12.40;99.90
16136;DHT22;8173;48.354;9.248;2023-01-01T09:39:25;12.60;99.90
16136;DHT22;8173;48.354;9.248;2023-01-01T09:42:04;12.30;99.90
16136;DHT22;8173;48.354;9.248;2023-01-01T09:44:48;12.20;99.90
16136;DHT22;8173;48.354;9.248;2023-01-01T09:47:22;12.00;99.90
16136;DHT22;8173;48.354;9.248;2023-01-01T09:49:51;11.80;99.90
16136;DHT22;8173;48.354;9.248;2023-01-01T09:52:20;11.60;99.90
16136;DHT22;8173;48.354;9.248;2023-01-01T09:54:49;11.70;99.90
16136;DHT22;8173;48.354;9.248;2023-01-01T09:57:17;11.70;99.90
16136;DHT22;8173;48.354;9.248;2023-01-01T09:59:45;11.80;99.90
16136;DHT22;8173;48.354;9.248;2023-01-01T10:02:33;11.90;99.90
16136;DHT22;8173;48.354;9.248;2023-01-01T10:05:07;12.00;99.90
16136;DHT22;8173;48.354;9.248;2023-01-01T10:07:43;12.00;99.90
16136;DHT22;8173;48.354;9.248;2023-01-01T10:10:21;11.90;99.90
16136;DHT22;8173;48.354;9.248;2023-01-01T10:12:57;11.40;99.90
16136;DHT22;8173;48.354;9.248;2023-01-01T10:15:28;11.00;99.90
16136;DHT22;8173;48.354;9.248;2023-01-01T10:17:58;10.70;99.90
16136;DHT22;8173;48.354;9.248;2023-01-01T10:20:30;10.70;99.90
16136;DHT22;8173;48.354;9.248;2023-01-01T10:23:01;10.60;99.90
16136;DHT22;8173;48.354;9.248;2023-01-01T10:25:30;10.80;99.90
16136;DHT22;8173;48.354;9.248;2023-01-01T10:27:59;11.20;99.90
16136;DHT22;8173;48.354;9.248;2023-01-01T10:30:29;11.30;99.90
16136;DHT22;8173;48.354;9.248;2023-01-01T10:32:56;11.30;99.90
16136;DHT22;8173;48.354;9.248;2023-01-01T10:35:26;11.10;99.90
16136;DHT22;8173;48.354;9.248;2023-01-01T10:37:57;11.30;99.90
16136;DHT22;8173;48.354;9.248;2023-01-01T10:40:25;11.60;99.90
16136;DHT22;8173;48.354;9.248;2023-01-01T10:42:54;11.60;99.90
16136;DHT22;8173;48.354;9.248;2023-01-01T10:45:30;11.80;99.90
16136;DHT22;8173;48.354;9.248;2023-01-01T10:48:17;12.00;99.90
16136;DHT22;8173;48.354;9.248;2023-01-01T10:50:47;12.40;99.90
16136;DHT22;8173;48.354;9.248;2023-01-01T10:53:24;12.60;99.90
16136;DHT22;8173;48.354;9.248;2023-01-01T10:55:58;12.50;99.90
16136;DHT22;8173;48.354;9.248;2023-01-01T10:58:34;12.50;99.90
16136;DHT22;8173;48.354;9.248;2023-01-01T11:01:03;12.50;99.90
16136;DHT22;8173;48.354;9.248;2023-01-01T11:03:30;12.80;99.90
16136;DHT22;8173;48.354;9.248;2023-01-01T11:06:03;13.00;99.90
16136;DHT22;8173;48.354;9.248;2023-01-01T11:08:31;13.10;99.90
16136;DHT22;8173;48.354;9.248;2023-01-01T11:11:00;13.30;99.90
16136;DHT22;8173;48.354;9.248;2023-01-01T11:13:28;13.30;99.90
16136;DHT22;8173;48.354;9.248;2023-01-01T11:15:56;13.20;99.90
16136;DHT22;8173;48.354;9.248;2023-01-01T11:18:26;13.20;99.90
16136;DHT22;8173;48.354;9.248;2023-01-01T11:20:59;13.50;99.90
16136;DHT22;8173;48.354;9.248;2023-01-01T11:23:29;13.60;99.90
16136;DHT22;8173;48.354;9.248;2023-01-01T11:26:03;13.60;99.90
16136;DHT22;8173;48.354;9.248;2023-01-01T11:28:31;13.70;99.90
16136;DHT22;8173;48.354;9.248;2023-01-01T11:31:14;13.90;99.90
16136;DHT22;8173;48.354;9.248;2023-01-01T11:33:45;14.00;99.90
16136;DHT22;8173;48.354;9.248;2023-01-01T11:36:20;14.10;99.90
16136;DHT22;8173;48.354;9.248;2023-01-01T11:38:48;14.20;99.90
16136;DHT22;8173;48.354;9.248;2023-01-01T11:41:16;14.20;99.90
16136;DHT22;8173;48.354;9.248;2023-01-01T11:43:44;14.10;99.90
16136;DHT22;8173;48.354;9.248;2023-01-01T11:46:16;14.30;99.90
16136;DHT22;8173;48.354;9.248;2023-01-01T11:48:45;14.20;99.90
16136;DHT22;8173;48.354;9.248;2023-01-01T11:51:28;14.20;99.90
16136;DHT22;8173;48.354;9.248;2023-01-01T11:54:11;14.20;99.90
16136;DHT22;8173;48.354;9.248;2023-01-01T11:56:46;14.20;99.90
16136;DHT22;8173;48.354;9.248;2023-01-01T11:59:15;14.30;99.90
16136;DHT22;8173;48.354;9.248;2023-01-01T12:01:45;14.10;99.90
16136;DHT22;8173;48.354;9.248;2023-01-01T12:04:18;14.10;99.90
16136;DHT22;8173;48.354;9.248;2023-01-01T12:06:50;14.10;99.90
16136;DHT22;8173;48.354;9.248;2023-01-01T12:09:22;14.10;99.90
16136;DHT22;8173;48.354;9.248;2023-01-01T12:11:54;14.30;99.90
16136;DHT22;8173;48.354;9.248;2023-01-01T12:14:28;14.30;99.90
16136;DHT22;8173;48.354;9.248;2023-01-01T12:17:00;14.40;99.90
16136;DHT22;8173;48.354;9.248;2023-01-01T12:19:35;14.30;99.90
16136;DHT22;8173;48.354;9.248;2023-01-01T12:22:10;14.20;99.90
16136;DHT22;8173;48.354;9.248;2023-01-01T12:24:40;14.30;99.90
16136;DHT22;8173;48.354;9.248;2023-01-01T12:27:19;14.20;99.90
16136;DHT22;8173;48.354;9.248;2023-01-01T12:30:05;14.20;99.90
16136;DHT22;8173;48.354;9.248;2023-01-01T12:35:46;14.10;99.90
16136;DHT22;8173;48.354;9.248;2023-01-01T12:38:26;14.00;99.90
16136;DHT22;8173;48.354;9.248;2023-01-01T12:41:03;14.00;99.90
16136;DHT22;8173;48.354;9.248;2023-01-01T12:43:36;14.10;99.90
16136;DHT22;8173;48.354;9.248;2023-01-01T12:46:14;14.10;99.90
16136;DHT22;8173;48.354;9.248;2023-01-01T12:49:00;14.00;99.90
16136;DHT22;8173;48.354;9.248;2023-01-01T12:51:39;14.60;99.90
16136;DHT22;8173;48.354;9.248;2023-01-01T12:54:29;13.80;99.90
16136;DHT22;8173;48.354;9.248;2023-01-01T12:57:02;14.10;99.90
16136;DHT22;8173;48.354;9.248;2023-01-01T12:59:32;14.20;99.90
16136;DHT22;8173;48.354;9.248;2023-01-01T13:02:02;14.30;99.90
16136;DHT22;8173;48.354;9.248;2023-01-01T13:04:37;14.20;99.90
16136;DHT22;8173;48.354;9.248;2023-01-01T13:07:08;14.10;99.90
16136;DHT22;8173;48.354;9.248;2023-01-01T13:09:39;14.10;99.90
16136;DHT22;8173;48.354;9.248;2023-01-01T13:12:11;14.10;99.90
16136;DHT22;8173;48.354;9.248;2023-01-01T13:14:41;14.00;99.90
16136;DHT22;8173;48.354;9.248;2023-01-01T13:17:17;14.00;99.90
16136;DHT22;8173;48.354;9.248;2023-01-01T13:19:45;14.00;99.90
16136;DHT22;8173;48.354;9.248;2023-01-01T13:22:38;14.00;99.90
16136;DHT22;8173;48.354;9.248;2023-01-01T13:25:18;14.00;99.90
16136;DHT22;8173;48.354;9.248;2023-01-01T13:28:09;14.00;99.90
16136;DHT22;8173;48.354;9.248;2023-01-01T13:30:50;14.10;99.90
16136;DHT22;8173;48.354;9.248;2023-01-01T13:33:20;14.10;99.90
16136;DHT22;8173;48.354;9.248;2023-01-01T13:38:57;14.20;99.90
16136;DHT22;8173;48.354;9.248;2023-01-01T13:41:29;14.00;99.90
16136;DHT22;8173;48.354;9.248;2023-01-01T13:44:11;14.00;99.90
16136;DHT22;8173;48.354;9.248;2023-01-01T13:46:48;14.00;99.90
16136;DHT22;8173;48.354;9.248;2023-01-01T13:49:24;14.00;99.90
16136;DHT22;8173;48.354;9.248;2023-01-01T13:55:05;14.00;99.90
16136;DHT22;8173;48.354;9.248;2023-01-01T14:00:34;13.70;99.90
16136;DHT22;8173;48.354;9.248;2023-01-01T14:03:10;13.60;99.90
16136;DHT22;8173;48.354;9.248;2023-01-01T14:05:41;13.70;99.90
16136;DHT22;8173;48.354;9.248;2023-01-01T14:08:27;13.70;99.90
16136;DHT22;8173;48.354;9.248;2023-01-01T14:10:56;13.70;99.90
16136;DHT22;8173;48.354;9.248;2023-01-01T14:13:25;13.60;99.90
16136;DHT22;8173;48.354;9.248;2023-01-01T14:15:56;13.50;99.90
16136;DHT22;8173;48.354;9.248;2023-01-01T14:18:31;13.50;99.90
16136;DHT22;8173;48.354;9.248;2023-01-01T14:20:58;13.20;99.90
16136;DHT22;8173;48.354;9.248;2023-01-01T14:23:29;13.20;99.90
16136;DHT22;8173;48.354;9.248;2023-01-01T14:25:59;13.10;99.90
16136;DHT22;8173;48.354;9.248;2023-01-01T14:28:29;13.10;99.90
16136;DHT22;8173;48.354;9.248;2023-01-01T14:30:58;13.00;99.90
16136;DHT22;8173;48.354;9.248;2023-01-01T14:33:27;12.80;99.90
16136;DHT22;8173;48.354;9.248;2023-01-01T14:35:55;12.80;99.90
16136;DHT22;8173;48.354;9.248;2023-01-01T14:38:24;12.70;99.90
16136;DHT22;8173;48.354;9.248;2023-01-01T14:41:07;12.50;99.90
16136;DHT22;8173;48.354;9.248;2023-01-01T14:43:37;12.30;99.90
16136;DHT22;8173;48.354;9.248;2023-01-01T14:46:04;12.20;99.90
16136;DHT22;8173;48.354;9.248;2023-01-01T14:48:32;12.30;99.90
16136;DHT22;8173;48.354;9.248;2023-01-01T14:51:01;12.30;99.90
16136;DHT22;8173;48.354;9.248;2023-01-01T14:53:30;12.30;99.90
16136;DHT22;8173;48.354;9.248;2023-01-01T14:55:58;12.10;99.90
16136;DHT22;8173;48.354;9.248;2023-01-01T14:58:28;11.90;99.90
16136;DHT22;8173;48.354;9.248;2023-01-01T15:01:13;11.50;99.90
16136;DHT22;8173;48.354;9.248;2023-01-01T15:03:54;11.40;99.90
16136;DHT22;8173;48.354;9.248;2023-01-01T15:06:22;11.10;99.90
16136;DHT22;8173;48.354;9.248;2023-01-01T15:08:50;10.80;99.90
16136;DHT22;8173;48.354;9.248;2023-01-01T15:11:17;10.60;99.90
16136;DHT22;8173;48.354;9.248;2023-01-01T15:13:54;10.60;99.90
16136;DHT22;8173;48.354;9.248;2023-01-01T15:16:21;10.60;99.90
16136;DHT22;8173;48.354;9.248;2023-01-01T15:18:49;10.50;99.90
16136;DHT22;8173;48.354;9.248;2023-01-01T15:21:33;10.40;99.90
16136;DHT22;8173;48.354;9.248;2023-01-01T15:24:03;10.40;99.90
16136;DHT22;8173;48.354;9.248;2023-01-01T15:26:38;10.20;99.90
16136;DHT22;8173;48.354;9.248;2023-01-01T15:29:09;10.10;99.90
16136;DHT22;8173;48.354;9.248;2023-01-01T15:31:38;10.00;99.90
16136;DHT22;8173;48.354;9.248;2023-01-01T15:34:17;9.90;99.90
16136;DHT22;8173;48.354;9.248;2023-01-01T15:36:45;10.00;99.90
16136;DHT22;8173;48.354;9.248;2023-01-01T15:39:12;10.10;99.90
16136;DHT22;8173;48.354;9.248;2023-01-01T15:41:44;10.20;99.90
16136;DHT22;8173;48.354;9.248;2023-01-01T15:44:20;10.20;99.90
16136;DHT22;8173;48.354;9.248;2023-01-01T15:46:50;10.30;99.90
16136;DHT22;8173;48.354;9.248;2023-01-01T15:49:23;10.10;99.90
16136;DHT22;8173;48.354;9.248;2023-01-01T15:51:50;10.10;99.90
16136;DHT22;8173;48.354;9.248;2023-01-01T15:54:18;10.10;99.90
16136;DHT22;8173;48.354;9.248;2023-01-01T15:56:44;10.40;99.90
16136;DHT22;8173;48.354;9.248;2023-01-01T15:59:22;9.80;99.90
16136;DHT22;8173;48.354;9.248;2023-01-01T16:01:50;9.60;99.90
16136;DHT22;8173;48.354;9.248;2023-01-01T16:04:18;9.40;99.90
16136;DHT22;8173;48.354;9.248;2023-01-01T16:06:47;9.10;99.90
16136;DHT22;8173;48.354;9.248;2023-01-01T16:09:15;9.10;99.90
16136;DHT22;8173;48.354;9.248;2023-01-01T16:11:43;9.20;99.90
16136;DHT22;8173;48.354;9.248;2023-01-01T16:14:10;9.20;99.90
16136;DHT22;8173;48.354;9.248;2023-01-01T16:16:39;9.20;99.90
16136;DHT22;8173;48.354;9.248;2023-01-01T16:19:14;9.10;99.90
16136;DHT22;8173;48.354;9.248;2023-01-01T16:21:41;9.00;99.90
16136;DHT22;8173;48.354;9.248;2023-01-01T16:24:11;8.90;99.90
16136;DHT22;8173;48.354;9.248;2023-01-01T16:26:38;9.00;99.90
16136;DHT22;8173;48.354;9.248;2023-01-01T16:29:04;9.10;99.90